sensor_id;sensor_type;location;lat;lon;timestamp;P1;durP1;ratioP1;P2;durP2;ratioP2
78406;SDS011;67692;51.074;-1.790;2023-07-24T00:01:18;8.45;;;1.80;;
78406;SDS011;67692;51.074;-1.790;2023-07-24T00:03:46;7.32;;;1.52;;
78406;SDS011;67692;51.074;-1.790;2023-07-24T00:06:13;6.40;;;1.73;;
78406;SDS011;67692;51.074;-1.790;2023-07-24T00:08:39;8.35;;;1.73;;
78406;SDS011;67692;51.074;-1.790;2023-07-24T00:11:06;9.30;;;1.75;;
78406;SDS011;67692;51.074;-1.790;2023-07-24T00:13:33;7.55;;;1.35;;
78406;SDS011;67692;51.074;-1.790;2023-07-24T00:16:00;7.18;;;1.55;;
78406;SDS011;67692;51.074;-1.790;2023-07-24T00:18:26;7.03;;;1.20;;
78406;SDS011;67692;51.074;-1.790;2023-07-24T00:20:54;7.10;;;1.38;;
78406;SDS011;67692;51.074;-1.790;2023-07-24T00:23:21;7.43;;;1.20;;
78406;SDS011;67692;51.074;-1.790;2023-07-24T00:25:47;4.15;;;1.38;;
78406;SDS011;67692;51.074;-1.790;2023-07-24T00:28:14;6.05;;;1.55;;
78406;SDS011;67692;51.074;-1.790;2023-07-24T00:30:40;5.70;;;1.60;;
78406;SDS011;67692;51.074;-1.790;2023-07-24T00:33:08;8.38;;;1.45;;
78406;SDS011;67692;51.074;-1.790;2023-07-24T00:35:35;4.57;;;1.20;;
78406;SDS011;67692;51.074;-1.790;2023-07-24T00:38:03;6.35;;;1.33;;
78406;SDS011;67692;51.074;-1.790;2023-07-24T00:40:29;5.25;;;1.40;;
78406;SDS011;67692;51.074;-1.790;2023-07-24T00:42:56;4.05;;;1.25;;
78406;SDS011;67692;51.074;-1.790;2023-07-24T00:45:22;4.38;;;1.50;;
78406;SDS011;67692;51.074;-1.790;2023-07-24T00:47:50;6.80;;;1.38;;
78406;SDS011;67692;51.074;-1.790;2023-07-24T00:50:16;5.75;;;1.98;;
78406;SDS011;67692;51.074;-1.790;2023-07-24T00:52:44;6.85;;;1.30;;
78406;SDS011;67692;51.074;-1.790;2023-07-24T00:55:12;4.07;;;1.17;;
78406;SDS011;67692;51.074;-1.790;2023-07-24T00:57:41;4.93;;;1.23;;
78406;SDS011;67692;51.074;-1.790;2023-07-24T01:00:08;5.13;;;1.10;;
78406;SDS011;67692;51.074;-1.790;2023-07-24T01:02:36;7.68;;;1.40;;
78406;SDS011;67692;51.074;-1.790;2023-07-24T01:05:04;4.75;;;1.35;;
78406;SDS011;67692;51.074;-1.790;2023-07-24T01:07:31;7.70;;;1.35;;
78406;SDS011;67692;51.074;-1.790;2023-07-24T01:09:58;7.95;;;1.38;;
78406;SDS011;67692;51.074;-1.790;2023-07-24T01:12:27;3.88;;;1.33;;
78406;SDS011;67692;51.074;-1.790;2023-07-24T01:15:02;6.57;;;1.05;;
78406;SDS011;67692;51.074;-1.790;2023-07-24T01:17:34;4.82;;;1.00;;
78406;SDS011;67692;51.074;-1.790;2023-07-24T01:20:07;4.13;;;1.25;;
78406;SDS011;67692;51.074;-1.790;2023-07-24T01:22:38;5.10;;;1.05;;
78406;SDS011;67692;51.074;-1.790;2023-07-24T01:25:18;4.95;;;1.30;;
78406;SDS011;67692;51.074;-1.790;2023-07-24T01:27:50;4.93;;;1.30;;
78406;SDS011;67692;51.074;-1.790;2023-07-24T01:30:17;8.00;;;1.15;;
78406;SDS011;67692;51.074;-1.790;2023-07-24T01:32:45;9.38;;;1.55;;
78406;SDS011;67692;51.074;-1.790;2023-07-24T01:35:11;7.40;;;1.27;;
78406;SDS011;67692;51.074;-1.790;2023-07-24T01:37:38;5.80;;;1.58;;
78406;SDS011;67692;51.074;-1.790;2023-07-24T01:40:06;11.63;;;1.55;;
78406;SDS011;67692;51.074;-1.790;2023-07-24T01:42:33;5.50;;;1.48;;
78406;SDS011;67692;51.074;-1.790;2023-07-24T01:45:02;6.38;;;1.40;;
78406;SDS011;67692;51.074;-1.790;2023-07-24T01:47:30;5.63;;;1.55;;
78406;SDS011;67692;51.074;-1.790;2023-07-24T01:49:56;5.18;;;1.35;;
78406;SDS011;67692;51.074;-1.790;2023-07-24T01:52:23;6.97;;;1.63;;
78406;SDS011;67692;51.074;-1.790;2023-07-24T01:54:49;9.70;;;2.00;;
78406;SDS011;67692;51.074;-1.790;2023-07-24T01:57:16;6.75;;;1.83;;
78406;SDS011;67692;51.074;-1.790;2023-07-24T01:59:43;4.70;;;1.73;;
78406;SDS011;67692;51.074;-1.790;2023-07-24T02:02:11;8.07;;;1.63;;
78406;SDS011;67692;51.074;-1.790;2023-07-24T02:04:38;7.95;;;1.70;;
78406;SDS011;67692;51.074;-1.790;2023-07-24T02:07:04;6.43;;;1.92;;
78406;SDS011;67692;51.074;-1.790;2023-07-24T02:09:31;5.15;;;1.50;;
78406;SDS011;67692;51.074;-1.790;2023-07-24T02:11:57;7.88;;;1.88;;
78406;SDS011;67692;51.074;-1.790;2023-07-24T02:14:24;8.32;;;1.70;;
78406;SDS011;67692;51.074;-1.790;2023-07-24T02:16:51;6.30;;;1.27;;
78406;SDS011;67692;51.074;-1.790;2023-07-24T02:19:19;6.15;;;1.80;;
78406;SDS011;67692;51.074;-1.790;2023-07-24T02:21:46;6.35;;;1.58;;
78406;SDS011;67692;51.074;-1.790;2023-07-24T02:24:12;6.70;;;1.63;;
78406;SDS011;67692;51.074;-1.790;2023-07-24T02:26:39;10.30;;;3.17;;
78406;SDS011;67692;51.074;-1.790;2023-07-24T02:29:06;6.43;;;1.55;;
78406;SDS011;67692;51.074;-1.790;2023-07-24T02:31:33;7.72;;;1.20;;
78406;SDS011;67692;51.074;-1.790;2023-07-24T02:33:59;6.72;;;1.58;;
78406;SDS011;67692;51.074;-1.790;2023-07-24T02:36:27;6.72;;;1.23;;
78406;SDS011;67692;51.074;-1.790;2023-07-24T02:38:54;8.60;;;1.55;;
78406;SDS011;67692;51.074;-1.790;2023-07-24T02:41:20;5.72;;;1.50;;
78406;SDS011;67692;51.074;-1.790;2023-07-24T02:43:47;4.95;;;1.30;;
78406;SDS011;67692;51.074;-1.790;2023-07-24T02:46:13;3.53;;;1.20;;
78406;SDS011;67692;51.074;-1.790;2023-07-24T02:48:40;5.65;;;1.35;;
78406;SDS011;67692;51.074;-1.790;2023-07-24T02:51:06;8.38;;;1.63;;
78406;SDS011;67692;51.074;-1.790;2023-07-24T02:53:34;7.90;;;1.50;;
78406;SDS011;67692;51.074;-1.790;2023-07-24T02:56:01;8.25;;;1.40;;
78406;SDS011;67692;51.074;-1.790;2023-07-24T02:58:28;3.17;;;1.20;;
78406;SDS011;67692;51.074;-1.790;2023-07-24T03:01:01;5.95;;;1.73;;
78406;SDS011;67692;51.074;-1.790;2023-07-24T03:03:29;9.82;;;1.75;;
78406;SDS011;67692;51.074;-1.790;2023-07-24T03:05:55;9.30;;;1.50;;
78406;SDS011;67692;51.074;-1.790;2023-07-24T03:08:22;5.60;;;1.40;;
78406;SDS011;67692;51.074;-1.790;2023-07-24T03:10:50;6.35;;;1.52;;
78406;SDS011;67692;51.074;-1.790;2023-07-24T03:13:16;12.80;;;1.83;;
78406;SDS011;67692;51.074;-1.790;2023-07-24T03:15:43;4.95;;;1.48;;
78406;SDS011;67692;51.074;-1.790;2023-07-24T03:18:17;7.32;;;1.77;;
78406;SDS011;67692;51.074;-1.790;2023-07-24T03:20:43;5.90;;;1.95;;
78406;SDS011;67692;51.074;-1.790;2023-07-24T03:23:10;8.07;;;2.63;;
78406;SDS011;67692;51.074;-1.790;2023-07-24T03:25:36;9.23;;;1.90;;
78406;SDS011;67692;51.074;-1.790;2023-07-24T03:28:04;5.78;;;1.77;;
78406;SDS011;67692;51.074;-1.790;2023-07-24T03:30:31;11.00;;;2.00;;
78406;SDS011;67692;51.074;-1.790;2023-07-24T03:32:58;5.97;;;1.80;;
78406;SDS011;67692;51.074;-1.790;2023-07-24T03:35:25;3.75;;;1.35;;
78406;SDS011;67692;51.074;-1.790;2023-07-24T03:37:51;5.75;;;1.55;;
78406;SDS011;67692;51.074;-1.790;2023-07-24T03:40:18;6.88;;;1.55;;
78406;SDS011;67692;51.074;-1.790;2023-07-24T03:42:44;3.85;;;1.50;;
78406;SDS011;67692;51.074;-1.790;2023-07-24T03:45:12;6.80;;;1.63;;
78406;SDS011;67692;51.074;-1.790;2023-07-24T03:47:39;4.03;;;1.73;;
78406;SDS011;67692;51.074;-1.790;2023-07-24T03:50:05;5.80;;;1.80;;
78406;SDS011;67692;51.074;-1.790;2023-07-24T03:52:32;6.03;;;1.33;;
78406;SDS011;67692;51.074;-1.790;2023-07-24T03:54:59;8.02;;;1.58;;
78406;SDS011;67692;51.074;-1.790;2023-07-24T03:57:26;5.95;;;1.50;;
78406;SDS011;67692;51.074;-1.790;2023-07-24T03:59:52;5.10;;;1.45;;
78406;SDS011;67692;51.074;-1.790;2023-07-24T04:02:20;6.28;;;1.50;;
78406;SDS011;67692;51.074;-1.790;2023-07-24T04:04:47;10.10;;;1.73;;
78406;SDS011;67692;51.074;-1.790;2023-07-24T04:07:13;7.97;;;1.30;;
78406;SDS011;67692;51.074;-1.790;2023-07-24T04:09:40;8.20;;;2.05;;
78406;SDS011;67692;51.074;-1.790;2023-07-24T04:12:07;5.50;;;1.65;;
78406;SDS011;67692;51.074;-1.790;2023-07-24T04:14:34;6.78;;;1.80;;
78406;SDS011;67692;51.074;-1.790;2023-07-24T04:17:00;9.32;;;2.03;;
78406;SDS011;67692;51.074;-1.790;2023-07-24T04:19:28;6.20;;;1.60;;
78406;SDS011;67692;51.074;-1.790;2023-07-24T04:21:55;10.38;;;1.65;;
78406;SDS011;67692;51.074;-1.790;2023-07-24T04:24:22;4.82;;;1.40;;
78406;SDS011;67692;51.074;-1.790;2023-07-24T04:26:48;7.45;;;2.03;;
78406;SDS011;67692;51.074;-1.790;2023-07-24T04:29:15;3.70;;;1.30;;
78406;SDS011;67692;51.074;-1.790;2023-07-24T04:31:41;4.78;;;1.98;;
78406;SDS011;67692;51.074;-1.790;2023-07-24T04:34:08;7.72;;;1.60;;
78406;SDS011;67692;51.074;-1.790;2023-07-24T04:36:36;4.30;;;1.58;;
78406;SDS011;67692;51.074;-1.790;2023-07-24T04:39:02;5.20;;;1.50;;
78406;SDS011;67692;51.074;-1.790;2023-07-24T04:41:29;5.85;;;1.38;;
78406;SDS011;67692;51.074;-1.790;2023-07-24T04:43:55;7.57;;;2.03;;
78406;SDS011;67692;51.074;-1.790;2023-07-24T04:46:22;6.05;;;1.65;;
78406;SDS011;67692;51.074;-1.790;2023-07-24T04:48:49;6.28;;;1.60;;
78406;SDS011;67692;51.074;-1.790;2023-07-24T04:51:15;7.35;;;1.77;;
78406;SDS011;67692;51.074;-1.790;2023-07-24T04:53:45;5.78;;;1.55;;
78406;SDS011;67692;51.074;-1.790;2023-07-24T04:56:11;3.95;;;1.42;;
78406;SDS011;67692;51.074;-1.790;2023-07-24T04:58:38;7.55;;;1.30;;
78406;SDS011;67692;51.074;-1.790;2023-07-24T05:01:04;5.20;;;1.85;;
78406;SDS011;67692;51.074;-1.790;2023-07-24T05:03:31;6.07;;;1.40;;
78406;SDS011;67692;51.074;-1.790;2023-07-24T05:05:58;5.68;;;1.45;;
78406;SDS011;67692;51.074;-1.790;2023-07-24T05:08:24;5.05;;;1.42;;
78406;SDS011;67692;51.074;-1.790;2023-07-24T05:10:55;5.63;;;1.67;;
78406;SDS011;67692;51.074;-1.790;2023-07-24T05:13:23;5.65;;;1.38;;
78406;SDS011;67692;51.074;-1.790;2023-07-24T05:15:50;5.05;;;1.45;;
78406;SDS011;67692;51.074;-1.790;2023-07-24T05:18:16;4.03;;;1.30;;
78406;SDS011;67692;51.074;-1.790;2023-07-24T05:20:44;4.72;;;1.40;;
78406;SDS011;67692;51.074;-1.790;2023-07-24T05:23:12;5.85;;;1.30;;
78406;SDS011;67692;51.074;-1.790;2023-07-24T05:25:38;5.25;;;1.50;;
78406;SDS011;67692;51.074;-1.790;2023-07-24T05:28:06;6.00;;;1.73;;
78406;SDS011;67692;51.074;-1.790;2023-07-24T05:30:33;6.80;;;1.50;;
78406;SDS011;67692;51.074;-1.790;2023-07-24T05:33:00;6.80;;;1.50;;
78406;SDS011;67692;51.074;-1.790;2023-07-24T05:35:26;5.03;;;1.30;;
78406;SDS011;67692;51.074;-1.790;2023-07-24T05:37:53;4.22;;;1.38;;
78406;SDS011;67692;51.074;-1.790;2023-07-24T05:40:19;4.82;;;1.40;;
78406;SDS011;67692;51.074;-1.790;2023-07-24T05:42:46;5.20;;;1.55;;
78406;SDS011;67692;51.074;-1.790;2023-07-24T05:45:14;2.85;;;1.30;;
78406;SDS011;67692;51.074;-1.790;2023-07-24T05:47:40;5.00;;;1.40;;
78406;SDS011;67692;51.074;-1.790;2023-07-24T05:50:07;4.70;;;1.60;;
78406;SDS011;67692;51.074;-1.790;2023-07-24T05:52:34;5.72;;;1.55;;
78406;SDS011;67692;51.074;-1.790;2023-07-24T05:55:01;3.97;;;1.50;;
78406;SDS011;67692;51.074;-1.790;2023-07-24T05:57:28;5.30;;;1.67;;
78406;SDS011;67692;51.074;-1.790;2023-07-24T05:59:54;9.75;;;2.13;;
78406;SDS011;67692;51.074;-1.790;2023-07-24T06:02:22;3.63;;;1.33;;
78406;SDS011;67692;51.074;-1.790;2023-07-24T06:04:49;6.70;;;1.63;;
78406;SDS011;67692;51.074;-1.790;2023-07-24T06:07:15;6.82;;;1.95;;
78406;SDS011;67692;51.074;-1.790;2023-07-24T06:09:42;4.63;;;1.50;;
78406;SDS011;67692;51.074;-1.790;2023-07-24T06:12:09;6.10;;;1.27;;
78406;SDS011;67692;51.074;-1.790;2023-07-24T06:14:35;6.30;;;1.60;;
78406;SDS011;67692;51.074;-1.790;2023-07-24T06:17:02;4.68;;;1.40;;
78406;SDS011;67692;51.074;-1.790;2023-07-24T06:19:30;3.60;;;1.10;;
78406;SDS011;67692;51.074;-1.790;2023-07-24T06:21:56;3.50;;;1.48;;
78406;SDS011;67692;51.074;-1.790;2023-07-24T06:24:23;5.93;;;1.40;;
78406;SDS011;67692;51.074;-1.790;2023-07-24T06:26:50;5.03;;;1.33;;
78406;SDS011;67692;51.074;-1.790;2023-07-24T06:29:16;4.35;;;1.50;;
78406;SDS011;67692;51.074;-1.790;2023-07-24T06:31:43;6.03;;;1.42;;
78406;SDS011;67692;51.074;-1.790;2023-07-24T06:34:09;3.67;;;1.40;;
78406;SDS011;67692;51.074;-1.790;2023-07-24T06:36:37;4.45;;;1.30;;
78406;SDS011;67692;51.074;-1.790;2023-07-24T06:39:04;3.70;;;1.38;;
78406;SDS011;67692;51.074;-1.790;2023-07-24T06:41:30;5.13;;;1.40;;
78406;SDS011;67692;51.074;-1.790;2023-07-24T06:43:57;6.63;;;1.90;;
78406;SDS011;67692;51.074;-1.790;2023-07-24T06:46:23;8.48;;;1.40;;
78406;SDS011;67692;51.074;-1.790;2023-07-24T06:48:50;3.97;;;1.27;;
78406;SDS011;67692;51.074;-1.790;2023-07-24T06:51:17;3.15;;;1.17;;
78406;SDS011;67692;51.074;-1.790;2023-07-24T06:53:44;2.95;;;1.65;;
78406;SDS011;67692;51.074;-1.790;2023-07-24T06:56:11;3.88;;;1.58;;
78406;SDS011;67692;51.074;-1.790;2023-07-24T06:58:38;5.43;;;2.22;;
78406;SDS011;67692;51.074;-1.790;2023-07-24T07:01:05;6.38;;;1.73;;
78406;SDS011;67692;51.074;-1.790;2023-07-24T07:03:32;3.17;;;1.63;;
78406;SDS011;67692;51.074;-1.790;2023-07-24T07:06:00;4.05;;;1.55;;
78406;SDS011;67692;51.074;-1.790;2023-07-24T07:08:26;4.82;;;1.70;;
78406;SDS011;67692;51.074;-1.790;2023-07-24T07:10:55;3.17;;;1.30;;
78406;SDS011;67692;51.074;-1.790;2023-07-24T07:13:22;4.03;;;1.30;;
78406;SDS011;67692;51.074;-1.790;2023-07-24T07:15:49;4.03;;;1.23;;
78406;SDS011;67692;51.074;-1.790;2023-07-24T07:18:15;4.45;;;1.40;;
78406;SDS011;67692;51.074;-1.790;2023-07-24T07:20:44;4.90;;;1.55;;
78406;SDS011;67692;51.074;-1.790;2023-07-24T07:23:11;5.60;;;1.70;;
78406;SDS011;67692;51.074;-1.790;2023-07-24T07:25:38;6.22;;;1.50;;
78406;SDS011;67692;51.074;-1.790;2023-07-24T07:28:06;6.47;;;1.45;;
78406;SDS011;67692;51.074;-1.790;2023-07-24T07:30:32;3.58;;;1.10;;
78406;SDS011;67692;51.074;-1.790;2023-07-24T07:32:59;3.22;;;1.25;;
78406;SDS011;67692;51.074;-1.790;2023-07-24T07:35:26;4.10;;;1.23;;
78406;SDS011;67692;51.074;-1.790;2023-07-24T07:37:52;3.97;;;1.40;;
78406;SDS011;67692;51.074;-1.790;2023-07-24T07:40:19;5.10;;;1.65;;
78406;SDS011;67692;51.074;-1.790;2023-07-24T07:42:45;4.78;;;1.52;;
78406;SDS011;67692;51.074;-1.790;2023-07-24T07:45:13;4.68;;;1.50;;
78406;SDS011;67692;51.074;-1.790;2023-07-24T07:47:40;7.70;;;1.65;;
78406;SDS011;67692;51.074;-1.790;2023-07-24T07:50:07;4.45;;;1.27;;
78406;SDS011;67692;51.074;-1.790;2023-07-24T07:52:34;3.38;;;1.10;;
78406;SDS011;67692;51.074;-1.790;2023-07-24T07:55:00;5.95;;;1.77;;
78406;SDS011;67692;51.074;-1.790;2023-07-24T07:57:27;1.58;;;0.90;;
78406;SDS011;67692;51.074;-1.790;2023-07-24T07:59:53;3.20;;;1.23;;
78406;SDS011;67692;51.074;-1.790;2023-07-24T08:02:21;4.82;;;1.27;;
78406;SDS011;67692;51.074;-1.790;2023-07-24T08:04:48;4.97;;;1.27;;
78406;SDS011;67692;51.074;-1.790;2023-07-24T08:07:15;4.55;;;1.33;;
78406;SDS011;67692;51.074;-1.790;2023-07-24T08:09:41;3.20;;;1.25;;
78406;SDS011;67692;51.074;-1.790;2023-07-24T08:12:08;3.55;;;1.30;;
78406;SDS011;67692;51.074;-1.790;2023-07-24T08:14:34;4.18;;;1.10;;
78406;SDS011;67692;51.074;-1.790;2023-07-24T08:17:01;4.75;;;1.40;;
78406;SDS011;67692;51.074;-1.790;2023-07-24T08:19:29;2.45;;;1.10;;
78406;SDS011;67692;51.074;-1.790;2023-07-24T08:21:55;3.25;;;1.00;;
78406;SDS011;67692;51.074;-1.790;2023-07-24T08:24:22;3.22;;;1.20;;
78406;SDS011;67692;51.074;-1.790;2023-07-24T08:26:49;3.15;;;1.00;;
78406;SDS011;67692;51.074;-1.790;2023-07-24T08:29:15;4.40;;;1.45;;
78406;SDS011;67692;51.074;-1.790;2023-07-24T08:31:42;3.08;;;1.38;;
78406;SDS011;67692;51.074;-1.790;2023-07-24T08:34:08;5.00;;;1.60;;
78406;SDS011;67692;51.074;-1.790;2023-07-24T08:36:36;3.30;;;1.23;;
78406;SDS011;67692;51.074;-1.790;2023-07-24T08:39:03;5.35;;;1.55;;
78406;SDS011;67692;51.074;-1.790;2023-07-24T08:41:29;5.70;;;1.50;;
78406;SDS011;67692;51.074;-1.790;2023-07-24T08:43:59;4.05;;;1.52;;
78406;SDS011;67692;51.074;-1.790;2023-07-24T08:46:26;16.08;;;2.83;;
78406;SDS011;67692;51.074;-1.790;2023-07-24T08:48:53;3.58;;;1.63;;
78406;SDS011;67692;51.074;-1.790;2023-07-24T08:51:21;4.00;;;1.80;;
78406;SDS011;67692;51.074;-1.790;2023-07-24T08:53:49;3.55;;;1.55;;
78406;SDS011;67692;51.074;-1.790;2023-07-24T08:56:17;5.40;;;1.52;;
78406;SDS011;67692;51.074;-1.790;2023-07-24T08:58:43;6.63;;;2.20;;
78406;SDS011;67692;51.074;-1.790;2023-07-24T09:01:10;5.05;;;1.90;;
78406;SDS011;67692;51.074;-1.790;2023-07-24T09:03:37;4.35;;;2.13;;
78406;SDS011;67692;51.074;-1.790;2023-07-24T09:06:03;4.80;;;2.45;;
78406;SDS011;67692;51.074;-1.790;2023-07-24T09:08:32;4.28;;;2.33;;
78406;SDS011;67692;51.074;-1.790;2023-07-24T09:11:02;7.70;;;2.40;;
78406;SDS011;67692;51.074;-1.790;2023-07-24T09:13:29;4.72;;;2.40;;
78406;SDS011;67692;51.074;-1.790;2023-07-24T09:15:56;5.00;;;2.25;;
78406;SDS011;67692;51.074;-1.790;2023-07-24T09:18:24;5.75;;;1.80;;
78406;SDS011;67692;51.074;-1.790;2023-07-24T09:20:50;3.20;;;1.42;;
78406;SDS011;67692;51.074;-1.790;2023-07-24T09:23:25;2.88;;;0.88;;
78406;SDS011;67692;51.074;-1.790;2023-07-24T09:25:52;1.45;;;0.73;;
78406;SDS011;67692;51.074;-1.790;2023-07-24T09:28:20;0.77;;;0.38;;
78406;SDS011;67692;51.074;-1.790;2023-07-24T09:30:56;0.60;;;0.50;;
78406;SDS011;67692;51.074;-1.790;2023-07-24T09:33:33;0.30;;;0.30;;
78406;SDS011;67692;51.074;-1.790;2023-07-24T09:36:02;0.32;;;0.30;;
78406;SDS011;67692;51.074;-1.790;2023-07-24T09:38:29;0.93;;;0.30;;
78406;SDS011;67692;51.074;-1.790;2023-07-24T09:40:56;0.75;;;0.30;;
78406;SDS011;67692;51.074;-1.790;2023-07-24T09:43:25;0.30;;;0.30;;
78406;SDS011;67692;51.074;-1.790;2023-07-24T09:45:54;0.65;;;0.30;;
78406;SDS011;67692;51.074;-1.790;2023-07-24T09:48:22;0.32;;;0.30;;
78406;SDS011;67692;51.074;-1.790;2023-07-24T09:50:52;0.30;;;0.30;;
78406;SDS011;67692;51.074;-1.790;2023-07-24T09:53:20;0.20;;;0.20;;
78406;SDS011;67692;51.074;-1.790;2023-07-24T09:55:50;0.35;;;0.10;;
78406;SDS011;67692;51.074;-1.790;2023-07-24T09:58:23;0.20;;;0.20;;
78406;SDS011;67692;51.074;-1.790;2023-07-24T10:00:51;0.22;;;0.22;;
78406;SDS011;67692;51.074;-1.790;2023-07-24T10:03:19;0.22;;;0.22;;
78406;SDS011;67692;51.074;-1.790;2023-07-24T10:05:48;0.55;;;0.15;;
78406;SDS011;67692;51.074;-1.790;2023-07-24T10:08:16;0.43;;;0.40;;
78406;SDS011;67692;51.074;-1.790;2023-07-24T10:10:44;0.95;;;0.50;;
78406;SDS011;67692;51.074;-1.790;2023-07-24T10:13:11;0.38;;;0.32;;
78406;SDS011;67692;51.074;-1.790;2023-07-24T10:15:41;0.60;;;0.32;;
78406;SDS011;67692;51.074;-1.790;2023-07-24T10:18:09;1.25;;;0.30;;
78406;SDS011;67692;51.074;-1.790;2023-07-24T10:20:37;0.20;;;0.20;;
78406;SDS011;67692;51.074;-1.790;2023-07-24T10:23:04;0.55;;;0.38;;
78406;SDS011;67692;51.074;-1.790;2023-07-24T10:25:33;0.20;;;0.20;;
78406;SDS011;67692;51.074;-1.790;2023-07-24T10:28:02;0.43;;;0.30;;
78406;SDS011;67692;51.074;-1.790;2023-07-24T10:30:32;0.85;;;0.30;;
78406;SDS011;67692;51.074;-1.790;2023-07-24T10:33:04;0.40;;;0.30;;
78406;SDS011;67692;51.074;-1.790;2023-07-24T10:35:38;4.10;;;0.30;;
78406;SDS011;67692;51.074;-1.790;2023-07-24T10:38:06;2.28;;;0.20;;
78406;SDS011;67692;51.074;-1.790;2023-07-24T10:40:33;0.32;;;0.20;;
78406;SDS011;67692;51.074;-1.790;2023-07-24T10:43:00;0.43;;;0.20;;
78406;SDS011;67692;51.074;-1.790;2023-07-24T10:45:39;0.47;;;0.30;;
78406;SDS011;67692;51.074;-1.790;2023-07-24T10:48:08;0.75;;;0.75;;
78406;SDS011;67692;51.074;-1.790;2023-07-24T10:50:37;2.95;;;0.30;;
78406;SDS011;67692;51.074;-1.790;2023-07-24T10:53:04;1.52;;;0.40;;
78406;SDS011;67692;51.074;-1.790;2023-07-24T10:55:31;1.67;;;0.20;;
78406;SDS011;67692;51.074;-1.790;2023-07-24T10:57:58;0.40;;;0.20;;
78406;SDS011;67692;51.074;-1.790;2023-07-24T11:00:25;0.50;;;0.30;;
78406;SDS011;67692;51.074;-1.790;2023-07-24T11:02:52;0.93;;;0.35;;
78406;SDS011;67692;51.074;-1.790;2023-07-24T11:05:20;0.43;;;0.28;;
78406;SDS011;67692;51.074;-1.790;2023-07-24T11:07:47;0.28;;;0.20;;
78406;SDS011;67692;51.074;-1.790;2023-07-24T11:10:14;0.25;;;0.25;;
78406;SDS011;67692;51.074;-1.790;2023-07-24T11:12:41;0.63;;;0.40;;
78406;SDS011;67692;51.074;-1.790;2023-07-24T11:15:08;0.30;;;0.30;;
78406;SDS011;67692;51.074;-1.790;2023-07-24T11:17:35;0.55;;;0.38;;
78406;SDS011;67692;51.074;-1.790;2023-07-24T11:20:09;0.63;;;0.35;;
78406;SDS011;67692;51.074;-1.790;2023-07-24T11:22:39;1.52;;;0.50;;
78406;SDS011;67692;51.074;-1.790;2023-07-24T11:25:06;3.03;;;0.50;;
78406;SDS011;67692;51.074;-1.790;2023-07-24T11:27:37;1.92;;;0.40;;
78406;SDS011;67692;51.074;-1.790;2023-07-24T11:30:05;2.03;;;0.80;;
78406;SDS011;67692;51.074;-1.790;2023-07-24T11:32:32;2.05;;;0.52;;
78406;SDS011;67692;51.074;-1.790;2023-07-24T11:34:58;1.90;;;0.43;;
78406;SDS011;67692;51.074;-1.790;2023-07-24T11:37:27;1.65;;;0.60;;
78406;SDS011;67692;51.074;-1.790;2023-07-24T11:39:56;0.32;;;0.32;;
78406;SDS011;67692;51.074;-1.790;2023-07-24T11:42:24;1.08;;;0.50;;
78406;SDS011;67692;51.074;-1.790;2023-07-24T11:44:52;0.93;;;0.30;;
78406;SDS011;67692;51.074;-1.790;2023-07-24T11:47:19;0.40;;;0.40;;
78406;SDS011;67692;51.074;-1.790;2023-07-24T11:49:55;1.80;;;0.40;;
78406;SDS011;67692;51.074;-1.790;2023-07-24T11:52:23;0.73;;;0.40;;
78406;SDS011;67692;51.074;-1.790;2023-07-24T11:54:56;0.60;;;0.32;;
78406;SDS011;67692;51.074;-1.790;2023-07-24T11:57:26;1.10;;;0.47;;
78406;SDS011;67692;51.074;-1.790;2023-07-24T11:59:53;1.13;;;0.40;;
78406;SDS011;67692;51.074;-1.790;2023-07-24T12:02:21;0.43;;;0.30;;
78406;SDS011;67692;51.074;-1.790;2023-07-24T12:04:53;0.45;;;0.30;;
78406;SDS011;67692;51.074;-1.790;2023-07-24T12:07:21;0.47;;;0.40;;
78406;SDS011;67692;51.074;-1.790;2023-07-24T12:09:50;2.88;;;0.60;;
78406;SDS011;67692;51.074;-1.790;2023-07-24T12:12:18;2.20;;;0.50;;
78406;SDS011;67692;51.074;-1.790;2023-07-24T12:14:45;2.83;;;0.80;;
78406;SDS011;67692;51.074;-1.790;2023-07-24T12:17:11;2.08;;;1.17;;
78406;SDS011;67692;51.074;-1.790;2023-07-24T12:19:44;1.30;;;0.50;;
78406;SDS011;67692;51.074;-1.790;2023-07-24T12:22:12;0.98;;;0.55;;
78406;SDS011;67692;51.074;-1.790;2023-07-24T12:24:38;2.28;;;0.57;;
78406;SDS011;67692;51.074;-1.790;2023-07-24T12:27:05;2.65;;;0.70;;
78406;SDS011;67692;51.074;-1.790;2023-07-24T12:29:33;2.40;;;0.82;;
78406;SDS011;67692;51.074;-1.790;2023-07-24T12:31:59;0.93;;;0.60;;
78406;SDS011;67692;51.074;-1.790;2023-07-24T12:34:26;1.88;;;0.60;;
78406;SDS011;67692;51.074;-1.790;2023-07-24T12:36:53;0.90;;;0.40;;
78406;SDS011;67692;51.074;-1.790;2023-07-24T12:39:19;1.02;;;0.47;;
78406;SDS011;67692;51.074;-1.790;2023-07-24T12:41:46;0.85;;;0.40;;
78406;SDS011;67692;51.074;-1.790;2023-07-24T12:44:13;1.25;;;0.50;;
78406;SDS011;67692;51.074;-1.790;2023-07-24T12:46:40;2.13;;;0.63;;
78406;SDS011;67692;51.074;-1.790;2023-07-24T12:49:07;2.75;;;0.57;;
78406;SDS011;67692;51.074;-1.790;2023-07-24T12:51:34;1.67;;;0.60;;
78406;SDS011;67692;51.074;-1.790;2023-07-24T12:54:00;1.73;;;0.50;;
78406;SDS011;67692;51.074;-1.790;2023-07-24T12:56:27;0.68;;;0.40;;
78406;SDS011;67692;51.074;-1.790;2023-07-24T12:58:53;1.33;;;0.30;;
78406;SDS011;67692;51.074;-1.790;2023-07-24T13:01:20;0.63;;;0.43;;
78406;SDS011;67692;51.074;-1.790;2023-07-24T13:03:48;0.80;;;0.40;;
78406;SDS011;67692;51.074;-1.790;2023-07-24T13:06:14;1.35;;;0.47;;
78406;SDS011;67692;51.074;-1.790;2023-07-24T13:08:41;1.10;;;0.57;;
78406;SDS011;67692;51.074;-1.790;2023-07-24T13:11:07;0.70;;;0.52;;
78406;SDS011;67692;51.074;-1.790;2023-07-24T13:13:34;2.17;;;0.70;;
78406;SDS011;67692;51.074;-1.790;2023-07-24T13:16:01;0.85;;;0.40;;
78406;SDS011;67692;51.074;-1.790;2023-07-24T13:18:29;0.82;;;0.50;;
78406;SDS011;67692;51.074;-1.790;2023-07-24T13:20:57;0.63;;;0.40;;
78406;SDS011;67692;51.074;-1.790;2023-07-24T13:23:23;1.35;;;0.60;;
78406;SDS011;67692;51.074;-1.790;2023-07-24T13:25:51;0.88;;;0.40;;
78406;SDS011;67692;51.074;-1.790;2023-07-24T13:28:18;1.80;;;0.70;;
78406;SDS011;67692;51.074;-1.790;2023-07-24T13:30:45;1.08;;;0.40;;
78406;SDS011;67692;51.074;-1.790;2023-07-24T13:33:12;1.45;;;0.50;;
78406;SDS011;67692;51.074;-1.790;2023-07-24T13:35:39;1.23;;;0.52;;
78406;SDS011;67692;51.074;-1.790;2023-07-24T13:38:06;3.30;;;0.80;;
78406;SDS011;67692;51.074;-1.790;2023-07-24T13:40:34;0.85;;;0.50;;
78406;SDS011;67692;51.074;-1.790;2023-07-24T13:43:01;1.35;;;0.55;;
78406;SDS011;67692;51.074;-1.790;2023-07-24T13:45:28;2.05;;;0.52;;
78406;SDS011;67692;51.074;-1.790;2023-07-24T13:47:56;0.65;;;0.50;;
78406;SDS011;67692;51.074;-1.790;2023-07-24T13:50:23;1.50;;;0.60;;
78406;SDS011;67692;51.074;-1.790;2023-07-24T13:52:49;0.50;;;0.45;;
78406;SDS011;67692;51.074;-1.790;2023-07-24T13:55:17;2.42;;;0.60;;
78406;SDS011;67692;51.074;-1.790;2023-07-24T13:57:44;2.15;;;0.60;;
78406;SDS011;67692;51.074;-1.790;2023-07-24T14:00:11;0.77;;;0.50;;
78406;SDS011;67692;51.074;-1.790;2023-07-24T14:02:38;1.55;;;0.73;;
78406;SDS011;67692;51.074;-1.790;2023-07-24T14:05:05;2.08;;;0.70;;
78406;SDS011;67692;51.074;-1.790;2023-07-24T14:07:32;2.30;;;0.60;;
78406;SDS011;67692;51.074;-1.790;2023-07-24T14:09:59;2.35;;;0.63;;
78406;SDS011;67692;51.074;-1.790;2023-07-24T14:12:27;1.27;;;0.80;;
78406;SDS011;67692;51.074;-1.790;2023-07-24T14:14:53;2.33;;;0.60;;
78406;SDS011;67692;51.074;-1.790;2023-07-24T14:17:20;2.90;;;0.68;;
78406;SDS011;67692;51.074;-1.790;2023-07-24T14:19:46;2.20;;;0.50;;
78406;SDS011;67692;51.074;-1.790;2023-07-24T14:22:13;1.63;;;0.60;;
78406;SDS011;67692;51.074;-1.790;2023-07-24T14:24:39;2.47;;;0.60;;
78406;SDS011;67692;51.074;-1.790;2023-07-24T14:27:06;2.38;;;0.82;;
78406;SDS011;67692;51.074;-1.790;2023-07-24T14:29:34;2.03;;;0.68;;
78406;SDS011;67692;51.074;-1.790;2023-07-24T14:32:00;1.70;;;0.70;;
78406;SDS011;67692;51.074;-1.790;2023-07-24T14:34:27;3.40;;;0.65;;